Brandon Municipal Airport
CYBR : now visible

Airfield :











YOU CAN JOIN US ON...

 
LOGIN :

Register | Disclaimer

   EN    FR    IT 

 









Legend :    VFR   Marginal VFR   IFR   Intensive IFR   Very Intensive IFR
Visi :
Ceiling :
>= 8 km
>= 3000ft
5 to 8 km
1000 to 3000 ft
1500m to 5 km
500 to 1000 ft
800 to 1500m
200 to 500 ft
< 800m
< 200 ft
Symbols :   Thunderstorms  Fog  Heavy snow  Heavy precipitations  Wind > 20 kt






- Airport Elevation : 1343 ft
- IATA code : YBR


CYBR - Brandon Municipal

CURRENT METAR :
  • 041300Z 07002KT 15SM FEW035 SCT110 SCT250 08/07 A3006 RMK SC2AC1CI1 SLP194

EXPIRED METARs :
  • 041200Z VRB02KT 15SM SCT035 BKN110 07/07 A3007 RMK SC4AC2 SLP195
  • 041100Z 35003KT 15SM FEW110 06/06 A3006 RMK AC1 SLP192

TAF TAF CYBR
Valid from the 04 at 12:00 until the 05 at 00:00 UTC


041140Z 0412/0424 VRB03KT P6SM FEW110
TEMPO 0412/0415 2SM BR
PROB40 0412/0415 1/2SM FG OVC002
FM041500 VRB03KT P6SM SCT015
TEMPO 0415/0417 BKN015
BECMG 0415/0417 28008KT RMK NXT FCST BY 041800Z
CZWG FIR / North America



MET'MAP, your aeronautical weather chart ! - Copyright ORBIFLY December 2007 - Disclaimer

ORBIFLY MET'MAP TEAM :

Programming & Development : Alexandra Zaïnal
Original concept : Baudouin d'Aumeries
Technical & hardware support : Manuel Goepfert
Assistance : Marc-Olivier Méhu




SOURCES & CREDITS :

   NOAA       Earth
Advisory